Time;durP1;ratioP1;P1;durP2;ratioP2;P2;SDS_P1;SDS_P2;PMS_P1;PMS_P2;Temp;Humidity;BMP_temperature;BMP_pressure;BME280_temperature;BME280_humidity;BME280_pressure;Samples;Min_cycle;Max_cycle;Signal;HPM_P1;HPM_P2
2021/03/06 00:00:08;;;;;;;6.03;5.40;;;;;;;3.93;55.25;96761.03;5054845;28;20473;-84
2021/03/06 00:02:33;;;;;;;6.57;5.70;;;;;;;3.85;55.13;96770.16;5042617;28;20226;-81
2021/03/06 00:05:00;;;;;;;5.90;5.30;;;;;;;3.87;55.36;96766.56;5034403;28;20212;-82
2021/03/06 00:07:26;;;;;;;6.83;6.13;;;;;;;3.79;55.32;96764.56;5052972;28;20731;-82
2021/03/06 00:09:52;;;;;;;6.03;5.47;;;;;;;3.81;55.34;96769.56;5050244;28;20600;-82
2021/03/06 00:12:21;;;;;;;6.60;6.00;;;;;;;3.71;54.97;96763.44;5052132;28;20229;-80
2021/03/06 00:14:47;;;;;;;6.40;5.80;;;;;;;3.68;54.96;96771.28;5039190;28;20226;-82
2021/03/06 00:17:13;;;;;;;6.00;5.40;;;;;;;3.73;55.40;96766.69;5043827;28;20220;-82
2021/03/06 00:19:39;;;;;;;6.10;5.50;;;;;;;3.75;55.56;96767.41;5047418;28;20206;-81
2021/03/06 00:22:05;;;;;;;7.57;5.50;;;;;;;3.77;55.23;96770.69;5033885;28;20234;-82
2021/03/06 00:24:31;;;;;;;6.83;5.50;;;;;;;3.80;55.34;96775.56;5039530;28;20213;-83
2021/03/06 00:26:58;;;;;;;6.30;5.70;;;;;;;3.83;54.72;96765.16;5054650;28;20229;-81
2021/03/06 00:29:28;;;;;;;6.57;5.80;;;;;;;3.85;55.20;96770.16;5036032;28;20601;-81
2021/03/06 00:31:53;;;;;;;6.30;5.70;;;;;;;3.80;55.04;96763.63;5033289;28;20209;-83
2021/03/06 00:34:21;;;;;;;6.20;5.67;;;;;;;3.79;54.85;96772.19;5033144;28;20218;-83
2021/03/06 00:36:47;;;;;;;6.23;5.43;;;;;;;3.75;55.01;96769.97;5033270;28;20255;-81
2021/03/06 00:39:13;;;;;;;6.60;5.83;;;;;;;3.61;55.03;96765.81;5043272;28;20568;-83
2021/03/06 00:41:39;;;;;;;6.23;5.63;;;;;;;3.62;55.29;96770.00;5051524;28;20275;-83
2021/03/06 00:44:06;;;;;;;6.20;5.60;;;;;;;3.55;55.28;96765.41;5053421;28;20196;-82
2021/03/06 00:46:33;;;;;;;5.73;5.23;;;;;;;3.58;55.76;96763.47;5051972;28;20226;-83
2021/03/06 00:49:00;;;;;;;6.47;5.63;;;;;;;3.64;55.63;96767.34;5035604;28;20229;-82
2021/03/06 00:51:26;;;;;;;6.23;5.63;;;;;;;3.34;55.41;96765.94;5033249;28;20233;-83
2021/03/06 00:53:55;;;;;;;6.27;5.67;;;;;;;3.30;56.10;96767.06;5053368;28;20221;-83
2021/03/06 00:56:21;;;;;;;6.20;5.60;;;;;;;3.43;55.98;96769.63;5052226;28;20225;-84
2021/03/06 00:58:56;;;;;;;5.60;5.10;;;;;;;3.37;55.16;96770.03;5034048;28;20205;-84
2021/03/06 01:01:22;;;;;;;5.93;5.27;;;;;;;3.31;55.67;96771.22;5063110;28;20224;-82
2021/03/06 01:03:48;;;;;;;6.47;5.20;;;;;;;2.90;55.83;96765.50;5073185;28;20225;-84
2021/03/06 01:06:14;;;;;;;5.90;5.30;;;;;;;2.60;57.22;96768.31;5072507;28;20641;-83
2021/03/06 01:08:41;;;;;;;5.80;5.20;;;;;;;2.50;57.49;96769.84;5059414;28;20235;-83
2021/03/06 01:11:07;;;;;;;5.50;4.97;;;;;;;2.51;57.42;96761.28;5063196;28;20189;-81
2021/03/06 01:13:32;;;;;;;5.50;5.00;;;;;;;2.66;57.89;96761.13;5033193;28;20707;-81
2021/03/06 01:15:58;;;;;;;5.90;5.30;;;;;;;2.74;56.65;96765.69;5050026;28;20232;-82
2021/03/06 01:18:27;;;;;;;5.40;4.90;;;;;;;2.60;56.54;96764.06;5052281;28;20234;-85
2021/03/06 01:20:54;;;;;;;6.17;5.30;;;;;;;2.52;57.47;96762.91;5045722;28;20238;-85
2021/03/06 01:23:22;;;;;;;6.27;5.03;;;;;;;2.48;57.52;96757.22;5037638;28;20226;-84
2021/03/06 01:25:49;;;;;;;6.03;5.03;;;;;;;2.51;57.63;96751.94;5052656;28;20202;-85
2021/03/06 01:28:15;;;;;;;4.90;4.40;;;;;;;2.47;57.51;96742.88;5056981;28;20755;-84
2021/03/06 01:30:42;;;;;;;5.70;4.77;;;;;;;2.48;57.09;96747.06;5054906;28;20228;-85
2021/03/06 01:33:08;;;;;;;6.07;4.77;;;;;;;2.39;57.66;96747.63;5055883;28;20229;-83
2021/03/06 01:35:35;;;;;;;5.77;5.17;;;;;;;2.30;58.13;96751.59;5048938;28;20734;-84
2021/03/06 01:38:02;;;;;;;5.43;4.93;;;;;;;2.31;58.16;96745.56;5039852;28;20364;-85
2021/03/06 01:40:30;;;;;;;5.30;4.67;;;;;;;2.32;58.04;96746.38;5057156;28;20205;-83
2021/03/06 01:42:57;;;;;;;6.23;5.03;;;;;;;2.30;57.96;96741.44;5055296;28;20720;-81
2021/03/06 01:45:23;;;;;;;5.27;4.77;;;;;;;2.40;58.59;96744.19;5036884;28;20225;-83
2021/03/06 01:47:51;;;;;;;5.63;5.13;;;;;;;2.37;58.53;96737.56;5035813;28;20692;-82
2021/03/06 01:50:21;;;;;;;6.07;5.07;;;;;;;2.30;58.98;96740.63;5050469;28;20287;-82
2021/03/06 01:52:49;;;;;;;6.17;4.80;;;;;;;2.28;59.13;96725.47;5040898;28;20191;-83
2021/03/06 01:55:16;;;;;;;6.17;5.10;;;;;;;2.35;58.91;96733.50;5031951;28;20670;-81
2021/03/06 01:57:43;;;;;;;7.40;5.43;;;;;;;2.40;58.82;96727.22;5031123;28;20232;-80
2021/03/06 02:00:09;;;;;;;5.97;5.37;;;;;;;2.57;58.47;96733.75;5032021;28;20234;-81
2021/03/06 02:02:36;;;;;;;6.43;5.50;;;;;;;2.74;58.53;96732.66;5039362;28;20470;-81
2021/03/06 02:05:02;;;;;;;7.30;5.60;;;;;;;2.77;58.67;96729.91;5051668;28;20205;-83
2021/03/06 02:07:28;;;;;;;7.60;5.77;;;;;;;2.83;58.60;96729.50;5035361;28;20228;-81
2021/03/06 02:09:54;;;;;;;5.70;5.10;;;;;;;2.86;58.42;96731.06;5035295;28;20710;-80
2021/03/06 02:12:27;;;;;;;6.27;5.10;;;;;;;2.77;58.21;96727.38;5051027;28;20229;-81
2021/03/06 02:15:09;;;;;;;6.33;5.23;;;;;;;2.66;58.54;96732.34;5051938;28;20221;-85
2021/03/06 02:17:43;;;;;;;9.13;5.57;;;;;;;2.81;58.40;96730.53;5036952;28;20879;-83
2021/03/06 02:20:45;;;;;;;5.67;4.97;;;;;;;2.78;58.60;96726.44;5048913;28;20229;-82
2021/03/06 02:23:58;;;;;;;6.43;4.90;;;;;;;2.86;58.00;96731.88;5057344;28;20255;-85
2021/03/06 02:26:44;;;;;;;6.13;5.37;;;;;;;2.93;58.17;96730.53;5021331;28;20234;-82
2021/03/06 02:29:42;;;;;;;7.57;5.60;;;;;;;2.87;58.00;96727.59;5042625;28;20645;-82
2021/03/06 02:32:13;;;;;;;7.67;5.93;;;;;;;2.92;58.35;96730.63;5051662;28;20227;-82
2021/03/06 02:34:45;;;;;;;6.83;5.33;;;;;;;2.76;57.93;96725.72;5073241;28;20737;-83
2021/03/06 02:37:17;;;;;;;5.97;5.37;;;;;;;2.54;58.63;96720.41;5073465;28;20225;-83
2021/03/06 02:39:45;;;;;;;6.40;5.67;;;;;;;2.53;58.83;96723.88;5041053;28;20646;-81
2021/03/06 02:42:16;;;;;;;6.43;5.73;;;;;;;2.36;59.36;96719.88;5044220;28;20229;-83
2021/03/06 02:44:45;;;;;;;6.60;5.80;;;;;;;2.27;59.90;96728.09;5070339;28;20286;-85
2021/03/06 02:47:11;;;;;;;6.93;5.90;;;;;;;2.34;60.11;96721.69;5073834;28;20684;-81
2021/03/06 02:49:37;;;;;;;6.67;5.50;;;;;;;2.10;60.33;96718.19;5058952;28;20335;-82
2021/03/06 02:52:03;;;;;;;6.33;5.57;;;;;;;2.10;61.17;96718.19;5042574;28;20230;-82
2021/03/06 02:54:30;;;;;;;8.70;5.70;;;;;;;2.13;60.78;96716.25;5040417;28;20233;-81
2021/03/06 02:56:56;;;;;;;6.83;6.03;;;;;;;2.12;60.68;96719.69;5063341;28;20251;-83
2021/03/06 02:59:48;;;;;;;6.10;5.47;;;;;;;2.13;61.12;96723.88;5057797;28;20245;-83
2021/03/06 03:02:19;;;;;;;5.90;5.30;;;;;;;1.97;61.49;96720.66;5047068;28;20194;-83
2021/03/06 03:04:59;;;;;;;6.23;5.63;;;;;;;2.04;61.72;96727.00;5080218;28;20220;-83
2021/03/06 03:07:34;;;;;;;5.97;5.37;;;;;;;2.09;61.58;96727.53;5073437;28;20224;-83
2021/03/06 03:10:05;;;;;;;6.10;5.50;;;;;;;2.07;61.38;96725.09;5043321;28;20225;-83
2021/03/06 03:12:36;;;;;;;6.33;5.73;;;;;;;2.11;61.71;96727.44;5056606;28;20225;-84
2021/03/06 03:15:09;;;;;;;6.90;5.50;;;;;;;2.23;61.35;96731.72;5059153;28;20241;-82
2021/03/06 03:17:39;;;;;;;6.67;5.53;;;;;;;2.30;61.52;96730.44;5046712;28;20233;-84
2021/03/06 03:20:12;;;;;;;6.83;6.07;;;;;;;2.42;61.13;96730.47;5057485;28;20206;-82
2021/03/06 03:22:42;;;;;;;6.67;5.40;;;;;;;2.55;60.98;96738.13;5054592;28;20737;-81
2021/03/06 03:25:11;;;;;;;6.17;5.57;;;;;;;2.68;60.21;96738.16;5043389;28;20221;-81
2021/03/06 03:27:39;;;;;;;6.27;5.67;;;;;;;2.76;59.93;96741.00;5054321;28;20309;-85
2021/03/06 03:30:10;;;;;;;7.70;5.63;;;;;;;2.76;59.62;96743.53;5048074;28;20591;-86
2021/03/06 03:32:36;;;;;;;6.70;6.00;;;;;;;2.65;60.05;96735.81;5040069;28;20660;-83
2021/03/06 03:35:05;;;;;;;6.50;5.80;;;;;;;2.69;59.76;96735.47;5053277;28;20197;-83
2021/03/06 03:37:34;;;;;;;7.37;6.07;;;;;;;2.60;59.81;96731.00;5034827;28;20218;-82
2021/03/06 03:40:01;;;;;;;6.30;5.70;;;;;;;2.57;60.12;96722.75;5050549;28;20247;-81
2021/03/06 03:42:27;;;;;;;6.30;5.70;;;;;;;2.55;59.92;96725.41;5054717;28;20315;-83
2021/03/06 03:44:53;;;;;;;6.83;5.67;;;;;;;2.63;60.10;96727.47;5038166;28;20729;-84
2021/03/06 03:47:21;;;;;;;7.93;5.87;;;;;;;2.65;59.86;96721.38;5034314;28;20237;-83
2021/03/06 03:49:48;;;;;;;6.80;6.00;;;;;;;2.73;60.28;96718.31;5047761;28;20197;-82
2021/03/06 03:52:14;;;;;;;6.63;5.83;;;;;;;2.68;59.65;96721.16;5048963;28;20258;-81
2021/03/06 03:54:40;;;;;;;6.53;5.87;;;;;;;2.64;59.77;96718.91;5033648;28;20245;-82
2021/03/06 03:57:08;;;;;;;6.20;5.60;;;;;;;2.44;60.27;96720.22;5036452;28;20225;-81
2021/03/06 03:59:34;;;;;;;6.60;5.93;;;;;;;2.34;60.36;96721.69;5054457;28;20889;-81
2021/03/06 04:02:00;;;;;;;6.67;6.03;;;;;;;2.06;61.60;96723.47;5052058;28;20201;-82
2021/03/06 04:04:30;;;;;;;6.70;6.00;;;;;;;2.13;61.78;96718.78;5033676;28;20249;-82
2021/03/06 04:06:58;;;;;;;6.67;5.97;;;;;;;2.04;61.60;96721.91;5046109;28;20849;-86
2021/03/06 04:09:24;;;;;;;7.93;5.87;;;;;;;2.07;61.72;96726.81;5035321;28;20226;-83
2021/03/06 04:11:51;;;;;;;6.47;5.80;;;;;;;1.96;61.83;96732.53;5045917;28;20256;-85
2021/03/06 04:14:18;;;;;;;6.60;5.93;;;;;;;1.97;61.91;96735.91;5051364;28;20245;-84
2021/03/06 04:16:45;;;;;;;7.67;6.40;;;;;;;1.76;62.96;96734.69;5035143;28;21125;-82
2021/03/06 04:19:11;;;;;;;7.17;5.97;;;;;;;1.47;63.73;96742.34;5036143;28;20800;-81
2021/03/06 04:21:37;;;;;;;7.27;6.10;;;;;;;1.35;64.64;96743.88;5052933;28;20221;-83
2021/03/06 04:24:04;;;;;;;7.27;6.13;;;;;;;1.40;64.80;96738.53;5051902;28;20229;-83
2021/03/06 04:26:30;;;;;;;7.33;6.10;;;;;;;1.63;64.25;96745.59;5033200;28;20225;-81
2021/03/06 04:28:56;;;;;;;6.70;5.90;;;;;;;1.61;64.03;96747.41;5032552;28;20222;-81
2021/03/06 04:31:22;;;;;;;6.73;6.00;;;;;;;1.55;64.25;96754.56;5052386;28;20291;-82
2021/03/06 04:33:48;;;;;;;6.63;5.93;;;;;;;1.56;64.26;96751.13;5044670;28;20594;-80
2021/03/06 04:36:14;;;;;;;6.50;5.80;;;;;;;1.58;64.06;96755.19;5033084;28;20226;-81
2021/03/06 04:38:41;;;;;;;7.33;6.17;;;;;;;1.57;64.14;96762.91;5038576;28;20232;-81
2021/03/06 04:41:07;;;;;;;6.63;5.93;;;;;;;1.59;64.09;96761.91;5052210;28;20695;-81
2021/03/06 04:43:33;;;;;;;7.43;6.10;;;;;;;1.71;63.78;96761.19;5047744;28;20190;-84
2021/03/06 04:45:59;;;;;;;6.40;5.67;;;;;;;1.81;63.66;96763.16;5032470;28;20230;-81
2021/03/06 04:48:25;;;;;;;6.67;5.73;;;;;;;1.69;63.66;96757.94;5046296;28;20240;-83
2021/03/06 04:50:51;;;;;;;7.53;6.03;;;;;;;1.51;64.08;96756.50;5051469;28;20230;-81
2021/03/06 04:53:17;;;;;;;7.03;6.33;;;;;;;1.55;64.08;96762.19;5050321;28;20205;-83
2021/03/06 04:55:44;;;;;;;7.07;6.33;;;;;;;1.51;64.21;96759.03;5044821;28;20198;-83
2021/03/06 04:58:10;;;;;;;7.27;5.83;;;;;;;1.47;64.19;96764.38;5031761;28;20230;-81
2021/03/06 05:00:36;;;;;;;7.20;6.13;;;;;;;1.45;64.63;96772.09;5036235;28;20221;-82
2021/03/06 05:03:02;;;;;;;6.90;6.20;;;;;;;1.46;64.69;96765.28;5051526;28;20648;-81
2021/03/06 05:05:28;;;;;;;6.50;5.60;;;;;;;1.40;64.74;96766.47;5049020;28;20217;-81
2021/03/06 05:07:54;;;;;;;6.43;5.83;;;;;;;1.42;64.46;96772.25;5043940;28;20836;-80
2021/03/06 05:10:24;;;;;;;6.03;5.37;;;;;;;1.56;64.71;96764.63;5033658;28;20217;-80
2021/03/06 05:12:51;;;;;;;6.80;6.10;;;;;;;1.66;64.25;96762.38;5050875;28;20233;-83
2021/03/06 05:15:17;;;;;;;7.87;6.30;;;;;;;1.61;64.12;96769.44;5035713;28;20221;-83
2021/03/06 05:17:43;;;;;;;9.30;6.17;;;;;;;1.49;64.00;96775.25;5051381;28;20279;-81
2021/03/06 05:20:09;;;;;;;7.53;6.30;;;;;;;1.42;64.44;96773.97;5049913;28;20201;-84
2021/03/06 05:22:35;;;;;;;8.60;6.47;;;;;;;1.43;64.09;96773.06;5057010;28;20231;-85
2021/03/06 05:25:01;;;;;;;5.97;5.37;;;;;;;0.99;65.75;96782.38;5041443;28;20305;-84
2021/03/06 05:27:27;;;;;;;9.40;6.10;;;;;;;0.97;65.75;96781.63;5052133;28;20892;-84
2021/03/06 05:29:54;;;;;;;7.67;6.33;;;;;;;1.12;65.83;96779.16;5036934;28;20232;-85
2021/03/06 05:32:20;;;;;;;6.57;5.93;;;;;;;1.01;65.42;96769.59;5038977;28;20232;-83
2021/03/06 05:34:46;;;;;;;6.63;5.87;;;;;;;0.93;65.44;96775.13;5048407;28;20652;-84
2021/03/06 05:37:12;;;;;;;7.83;6.00;;;;;;;0.99;65.54;96774.78;5055680;28;20229;-85
2021/03/06 05:39:41;;;;;;;5.60;5.00;;;;;;;0.89;65.65;96773.69;5057023;28;20311;-84
2021/03/06 05:42:09;;;;;;;8.60;6.30;;;;;;;0.92;65.82;96772.69;5041448;28;20261;-82
2021/03/06 05:44:37;;;;;;;7.03;5.60;;;;;;;1.10;65.49;96764.03;5040475;28;20229;-83
2021/03/06 05:47:05;;;;;;;6.33;5.50;;;;;;;1.21;65.25;96773.53;5055016;28;20229;-81
2021/03/06 05:49:32;;;;;;;6.60;5.60;;;;;;;1.36;64.54;96770.06;5042614;28;20206;-83
2021/03/06 05:52:00;;;;;;;7.03;5.60;;;;;;;1.33;64.29;96773.63;5052230;28;20217;-80
2021/03/06 05:54:28;;;;;;;7.30;5.10;;;;;;;1.25;64.54;96769.91;5056163;28;20255;-81
2021/03/06 05:56:55;;;;;;;7.90;5.70;;;;;;;1.37;64.37;96769.97;5052523;28;20226;-84
2021/03/06 05:59:22;;;;;;;6.23;5.57;;;;;;;1.31;63.97;96770.38;5052864;28;20227;-81
2021/03/06 06:01:50;;;;;;;6.20;5.23;;;;;;;1.10;64.16;96769.09;5036815;28;20233;-84
2021/03/06 06:04:17;;;;;;;5.77;5.00;;;;;;;0.99;64.44;96767.16;5053462;28;20297;-84
2021/03/06 06:06:44;;;;;;;6.80;4.73;;;;;;;1.00;64.42;96775.59;5068836;28;20716;-81
2021/03/06 06:09:10;;;;;;;5.63;5.10;;;;;;;0.96;64.52;96774.16;5062403;28;20287;-81
2021/03/06 06:11:36;;;;;;;5.93;4.87;;;;;;;0.90;65.26;96771.97;5043213;28;20225;-85
2021/03/06 06:14:04;;;;;;;5.60;5.00;;;;;;;0.82;65.24;96766.50;5042386;28;20228;-82
2021/03/06 06:16:31;;;;;;;6.10;5.13;;;;;;;0.87;64.79;96769.59;5055604;28;20224;-82
2021/03/06 06:18:57;;;;;;;7.10;5.27;;;;;;;0.93;64.51;96774.31;5054600;28;20229;-84
2021/03/06 06:21:38;;;;;;;8.17;5.57;;;;;;;0.81;64.58;96775.81;5056198;28;20288;-83
2021/03/06 06:24:04;;;;;;;5.33;4.50;;;;;;;0.60;65.12;96777.03;5044738;28;20760;-83
2021/03/06 06:26:30;;;;;;;6.17;4.80;;;;;;;0.72;65.36;96773.81;5036048;28;20756;-83
2021/03/06 06:28:56;;;;;;;6.13;4.83;;;;;;;0.65;64.79;96773.34;5043584;28;20252;-83
2021/03/06 06:31:23;;;;;;;7.00;4.63;;;;;;;0.69;64.87;96776.53;5036030;28;20232;-83
2021/03/06 06:33:51;;;;;;;5.33;4.50;;;;;;;0.86;63.41;96781.47;5053957;28;20512;-83
2021/03/06 06:36:33;;;;;;;5.57;4.73;;;;;;;1.35;63.49;96787.03;5036823;28;20234;-84
2021/03/06 06:39:01;;;;;;;5.53;4.70;;;;;;;1.66;61.36;96782.66;5044868;28;20249;-82
2021/03/06 06:41:52;;;;;;;6.20;4.73;;;;;;;1.61;59.95;96794.81;5037881;28;20218;-82
2021/03/06 06:44:18;;;;;;;5.93;4.33;;;;;;;1.91;59.42;96804.88;5037018;28;20233;-83
2021/03/06 06:46:44;;;;;;;5.27;4.27;;;;;;;2.01;58.79;96798.31;5057722;28;20221;-81
2021/03/06 06:49:11;;;;;;;4.73;4.23;;;;;;;1.95;58.95;96804.56;5043938;28;20221;-83
2021/03/06 06:51:39;;;;;;;5.53;4.17;;;;;;;2.18;58.36;96800.63;5035253;28;20226;-82
2021/03/06 06:54:10;;;;;;;6.40;4.27;;;;;;;2.24;57.66;96804.50;5045037;28;20832;-82
2021/03/06 06:56:36;;;;;;;4.53;4.00;;;;;;;2.34;57.74;96801.28;5037746;28;20217;-81
2021/03/06 06:59:08;;;;;;;5.57;4.20;;;;;;;2.32;56.46;96805.66;5045242;28;20193;-82
2021/03/06 07:01:36;;;;;;;6.90;4.47;;;;;;;2.43;56.14;96798.19;5055917;28;20271;-83
2021/03/06 07:04:03;;;;;;;5.37;4.40;;;;;;;2.78;56.28;96801.00;5046306;28;20218;-81
2021/03/06 07:06:29;;;;;;;5.70;4.47;;;;;;;3.16;54.72;96799.44;5035196;28;20503;-82
2021/03/06 07:09:06;;;;;;;4.77;4.20;;;;;;;3.24;53.97;96802.31;5044000;28;20243;-84
2021/03/06 07:11:33;;;;;;;4.60;4.10;;;;;;;3.42;52.97;96804.44;5047577;28;20778;-81
2021/03/06 07:14:00;;;;;;;4.03;3.63;;;;;;;3.24;53.00;96799.75;5035163;28;20204;-83
2021/03/06 07:17:00;;;;;;;4.27;3.87;;;;;;;3.27;53.19;96797.00;5040763;28;20232;-85
2021/03/06 07:19:29;;;;;;;4.53;4.00;;;;;;;3.23;52.81;96804.03;5054041;28;20221;-82
2021/03/06 07:21:56;;;;;;;4.50;3.93;;;;;;;3.15;52.74;96805.44;5056357;28;20232;-82
2021/03/06 07:24:21;;;;;;;5.13;3.93;;;;;;;3.36;52.58;96809.94;5054458;28;20217;-82
2021/03/06 07:26:51;;;;;;;4.40;4.00;;;;;;;3.61;52.14;96804.00;5056600;28;20244;-82
2021/03/06 07:29:18;;;;;;;4.50;3.80;;;;;;;4.00;51.53;96807.31;5045156;28;20210;-82
2021/03/06 07:31:48;;;;;;;5.60;3.83;;;;;;;3.93;50.49;96806.91;5034329;28;20214;-85
2021/03/06 07:34:15;;;;;;;4.10;3.70;;;;;;;4.07;49.97;96803.41;5047355;28;20218;-85
2021/03/06 07:36:43;;;;;;;5.00;4.03;;;;;;;4.14;49.66;96814.81;5035946;28;20225;-85
2021/03/06 07:39:11;;;;;;;5.43;3.83;;;;;;;4.34;48.86;96806.59;5047283;28;20225;-84
2021/03/06 07:41:41;;;;;;;4.67;3.53;;;;;;;4.67;48.73;96795.72;5051913;28;20236;-86
2021/03/06 07:44:12;;;;;;;4.60;3.63;;;;;;;4.64;47.75;96800.22;5050135;28;20182;-82
2021/03/06 07:46:39;;;;;;;6.57;3.83;;;;;;;4.92;47.54;96794.75;5035937;28;20580;-87
2021/03/06 07:49:11;;;;;;;4.83;3.70;;;;;;;5.25;46.37;96816.19;5040041;28;20667;-85
2021/03/06 07:51:41;;;;;;;5.63;3.73;;;;;;;5.84;46.21;96804.84;5032476;28;20321;-87
2021/03/06 07:54:09;;;;;;;4.77;3.50;;;;;;;5.85;45.87;96811.56;5028900;28;20222;-85
2021/03/06 07:56:36;;;;;;;4.93;3.80;;;;;;;6.16;44.84;96809.25;5033341;28;20544;-83
2021/03/06 07:59:03;;;;;;;5.77;3.30;;;;;;;6.45;43.75;96819.78;5033983;28;20230;-85
2021/03/06 08:01:31;;;;;;;4.23;3.67;;;;;;;6.55;43.40;96808.69;5034502;28;20198;-86
2021/03/06 08:03:57;;;;;;;4.03;3.63;;;;;;;6.71;44.11;96815.97;5047156;28;20234;-83
2021/03/06 08:06:24;;;;;;;3.47;3.17;;;;;;;6.60;42.80;96808.31;5061755;28;20220;-82
2021/03/06 08:08:59;;;;;;;4.27;3.40;;;;;;;6.23;43.26;96807.84;5051466;28;20226;-87
2021/03/06 08:11:26;;;;;;;5.10;3.73;;;;;;;5.87;44.19;96811.47;5039982;28;20235;-84
2021/03/06 08:13:54;;;;;;;4.73;3.90;;;;;;;5.77;43.34;96816.44;5034543;28;20229;-84
2021/03/06 08:16:40;;;;;;;4.00;3.20;;;;;;;5.89;43.17;96823.22;5049779;28;20213;-84
2021/03/06 08:19:32;;;;;;;3.43;3.13;;;;;;;6.51;42.87;96816.75;5033529;28;20729;-82
2021/03/06 08:22:16;;;;;;;3.70;3.23;;;;;;;6.58;42.08;96817.84;5023125;28;20881;-84
2021/03/06 08:24:43;;;;;;;4.17;3.30;;;;;;;6.18;42.35;96831.22;5032760;28;20218;-85
2021/03/06 08:27:19;;;;;;;3.83;3.53;;;;;;;6.62;42.94;96824.38;5023025;28;20318;-85
2021/03/06 08:29:47;;;;;;;4.80;3.30;;;;;;;7.14;42.16;96815.88;5025390;28;20284;-80
2021/03/06 08:32:16;;;;;;;3.30;3.00;;;;;;;7.25;40.20;96820.94;5033112;28;20202;-83
2021/03/06 08:34:45;;;;;;;4.30;3.50;;;;;;;7.42;41.67;96816.19;5042606;28;20190;-83
2021/03/06 08:37:45;;;;;;;3.30;3.00;;;;;;;7.19;41.18;96826.56;5034347;28;20237;-83
2021/03/06 08:40:15;;;;;;;5.10;3.40;;;;;;;6.98;40.68;96812.94;5047859;28;20222;-83
2021/03/06 08:42:43;;;;;;;4.33;3.10;;;;;;;7.70;41.29;96810.38;5050499;28;20683;-82
2021/03/06 08:45:11;;;;;;;3.73;3.37;;;;;;;7.78;39.26;96813.13;5054791;28;20221;-83
2021/03/06 08:47:40;;;;;;;11.63;7.80;;;;;;;8.11;38.42;96813.75;5053350;28;20221;-85
2021/03/06 08:50:09;;;;;;;6.53;4.30;;;;;;;8.28;37.61;96818.25;5044332;28;20198;-86
2021/03/06 08:52:36;;;;;;;3.20;2.90;;;;;;;8.15;37.56;96810.00;5055904;28;20244;-83
2021/03/06 08:55:03;;;;;;;4.20;3.00;;;;;;;7.80;38.19;96811.25;5043268;28;20764;-84
2021/03/06 08:57:33;;;;;;;4.27;2.93;;;;;;;7.37;38.12;96813.19;5035272;28;20229;-85
2021/03/06 09:00:04;;;;;;;3.33;2.90;;;;;;;7.44;37.21;96807.44;5054139;28;20228;-86
2021/03/06 09:02:32;;;;;;;3.67;2.83;;;;;;;6.98;37.79;96802.69;5070568;28;20225;-85
2021/03/06 09:05:08;;;;;;;3.63;3.30;;;;;;;6.89;38.40;96813.69;5043489;28;20198;-85
2021/03/06 09:07:36;;;;;;;3.23;2.93;;;;;;;6.75;38.75;96821.63;5055456;28;20227;-81
2021/03/06 09:10:26;;;;;;;4.43;3.03;;;;;;;6.39;39.36;96821.06;5055383;28;20225;-85
2021/03/06 09:12:54;;;;;;;3.40;3.10;;;;;;;6.70;39.39;96816.91;5055133;28;20244;-83
2021/03/06 09:15:39;;;;;;;3.97;3.20;;;;;;;6.81;39.44;96816.03;5044018;28;20232;-85
2021/03/06 09:18:07;;;;;;;4.30;3.00;;;;;;;6.98;38.72;96824.91;5034569;28;20225;-84
2021/03/06 09:20:40;;;;;;;3.77;2.97;;;;;;;6.98;39.70;96814.69;5054906;28;20770;-84
2021/03/06 09:23:06;;;;;;;3.27;2.97;;;;;;;7.08;38.90;96815.56;5072977;28;20211;-86
2021/03/06 09:25:36;;;;;;;3.60;3.30;;;;;;;7.12;39.59;96806.72;5054986;28;20216;-85
2021/03/06 09:28:03;;;;;;;5.77;4.10;;;;;;;7.16;39.62;96798.63;5035626;28;20234;-83
2021/03/06 09:30:33;;;;;;;3.87;3.47;;;;;;;7.13;40.32;96803.19;5039848;28;20224;-82
2021/03/06 09:32:59;;;;;;;3.43;3.13;;;;;;;7.11;39.20;96798.22;5052800;28;20746;-84
2021/03/06 09:35:27;;;;;;;4.10;3.40;;;;;;;7.39;38.89;96794.19;5041485;28;20222;-82
2021/03/06 09:38:11;;;;;;;3.60;3.30;;;;;;;7.62;39.13;96802.53;5035020;28;20218;-82
2021/03/06 09:40:41;;;;;;;4.00;3.63;;;;;;;7.59;39.19;96805.34;5041127;28;20780;-85
2021/03/06 09:43:07;;;;;;;7.30;6.23;;;;;;;7.38;39.16;96799.44;5053363;28;20225;-86
2021/03/06 09:45:33;;;;;;;5.20;4.63;;;;;;;7.38;39.63;96812.25;5052564;28;20248;-85
2021/03/06 09:48:04;;;;;;;4.23;3.83;;;;;;;7.28;39.45;96813.00;5055043;28;20240;-83
2021/03/06 09:50:31;;;;;;;3.73;3.43;;;;;;;7.40;40.41;96808.63;5052087;28;20641;-85
2021/03/06 09:52:56;;;;;;;5.37;4.10;;;;;;;7.25;39.74;96804.75;5040934;28;20201;-86
2021/03/06 09:55:24;;;;;;;3.87;3.57;;;;;;;7.15;40.22;96799.56;5033112;28;20233;-86
2021/03/06 09:57:49;;;;;;;4.83;4.30;;;;;;;7.12;40.58;96802.38;5042672;28;20257;-82
2021/03/06 10:00:25;;;;;;;4.53;4.10;;;;;;;6.90;41.23;96800.75;5043152;28;20237;-84
2021/03/06 10:02:53;;;;;;;4.47;4.07;;;;;;;6.92;40.48;96800.66;5042312;28;20228;-85
2021/03/06 10:05:23;;;;;;;5.33;4.83;;;;;;;6.75;41.81;96811.41;5052751;28;20545;-85
2021/03/06 10:07:54;;;;;;;5.37;4.17;;;;;;;7.03;40.80;96795.44;5044284;28;20237;-85
2021/03/06 10:10:24;;;;;;;4.60;4.10;;;;;;;7.52;41.09;96793.97;5032505;28;20275;-86
2021/03/06 10:12:51;;;;;;;4.07;3.63;;;;;;;7.60;40.43;96804.41;5040821;28;20271;-86
2021/03/06 10:15:18;;;;;;;4.63;4.00;;;;;;;7.99;40.21;96800.25;5034239;28;20245;-82
2021/03/06 10:17:44;;;;;;;5.53;4.20;;;;;;;7.74;39.81;96804.06;5049813;28;20907;-84
2021/03/06 10:20:11;;;;;;;4.70;4.30;;;;;;;7.47;40.26;96804.63;5052554;28;20198;-86
2021/03/06 10:22:45;;;;;;;4.57;4.20;;;;;;;7.51;39.76;96800.03;5036889;28;20202;-85
2021/03/06 10:25:14;;;;;;;4.50;4.10;;;;;;;7.49;39.62;96797.63;5032832;28;20283;-86
2021/03/06 10:27:43;;;;;;;4.50;4.10;;;;;;;7.56;40.39;96801.28;5040606;28;20233;-86
2021/03/06 10:30:14;;;;;;;4.53;4.10;;;;;;;7.72;40.46;96798.25;5027215;28;20230;-85
2021/03/06 10:32:41;;;;;;;4.33;3.93;;;;;;;7.52;40.13;96792.22;5048748;28;20270;-85
2021/03/06 10:35:23;;;;;;;4.33;3.90;;;;;;;7.73;41.40;96789.63;5038456;28;20253;-86
2021/03/06 10:37:51;;;;;;;5.00;3.67;;;;;;;8.11;40.97;96794.06;5048559;28;20210;-85
2021/03/06 10:40:17;;;;;;;4.40;4.00;;;;;;;8.11;40.89;96790.66;5045921;28;20232;-86
2021/03/06 10:42:46;;;;;;;6.33;4.10;;;;;;;8.28;40.76;96780.59;5044073;28;20630;-84
2021/03/06 10:45:24;;;;;;;3.77;3.47;;;;;;;8.50;39.51;96786.44;5036930;28;20234;-86
2021/03/06 10:47:52;;;;;;;8.13;3.93;;;;;;;8.57;40.23;96790.13;5040715;28;20767;-87
2021/03/06 10:50:27;;;;;;;4.23;3.83;;;;;;;8.34;39.79;96791.28;5052596;28;20201;-85
2021/03/06 10:53:09;;;;;;;4.43;4.03;;;;;;;8.00;40.23;96789.03;5053703;28;20205;-85
2021/03/06 10:55:35;;;;;;;4.43;4.03;;;;;;;7.73;40.55;96784.47;5040779;28;20283;-83
2021/03/06 10:58:02;;;;;;;4.07;3.67;;;;;;;7.79;40.94;96785.72;5038567;28;20233;-86
2021/03/06 11:00:28;;;;;;;8.00;3.93;;;;;;;7.68;41.70;96785.84;5034152;28;20222;-86
2021/03/06 11:02:56;;;;;;;4.60;3.80;;;;;;;8.21;41.08;96786.38;5034687;28;20248;-85
2021/03/06 11:05:24;;;;;;;4.20;3.80;;;;;;;7.86;40.89;96781.72;5038554;28;20249;-86
2021/03/06 11:07:50;;;;;;;8.23;7.30;;;;;;;8.38;41.03;96777.25;5049286;28;20226;-86
2021/03/06 11:10:18;;;;;;;10.70;9.47;;;;;;;8.83;39.60;96778.38;5035361;28;20252;-84
2021/03/06 11:12:51;;;;;;;4.97;3.93;;;;;;;8.79;39.22;96782.16;5044138;28;20716;-85
2021/03/06 11:15:21;;;;;;;4.83;3.90;;;;;;;8.68;38.98;96786.59;5042348;28;20237;-85
2021/03/06 11:17:53;;;;;;;4.20;3.80;;;;;;;8.57;40.58;96778.09;5051736;28;20786;-86
2021/03/06 11:20:20;;;;;;;4.83;4.23;;;;;;;8.43;40.37;96770.78;5037767;28;20206;-86
2021/03/06 11:22:50;;;;;;;5.07;4.00;;;;;;;8.18;40.52;96779.75;5037265;28;20206;-85
2021/03/06 11:25:18;;;;;;;4.80;4.40;;;;;;;8.15;41.45;96767.19;5056766;28;20707;-83
2021/03/06 11:27:46;;;;;;;3.87;3.53;;;;;;;8.14;41.28;96775.84;5037573;28;20226;-83
2021/03/06 11:30:14;;;;;;;4.37;3.97;;;;;;;7.63;41.79;96773.41;5041670;28;20213;-85
2021/03/06 11:32:41;;;;;;;4.57;4.17;;;;;;;8.01;42.31;96769.34;5056709;28;20247;-85
2021/03/06 11:35:09;;;;;;;5.10;3.97;;;;;;;7.75;41.70;96764.66;5049435;28;20190;-85
2021/03/06 11:37:35;;;;;;;4.63;4.10;;;;;;;7.91;41.22;96759.84;5057178;28;20226;-84
2021/03/06 11:40:01;;;;;;;4.93;3.90;;;;;;;7.65;41.50;96753.56;5052751;28;20233;-84
2021/03/06 11:42:29;;;;;;;4.07;3.53;;;;;;;7.95;42.25;96750.97;5036720;28;20233;-86
2021/03/06 11:45:01;;;;;;;4.77;3.73;;;;;;;7.83;40.24;96749.44;5024109;28;20737;-85
2021/03/06 11:47:27;;;;;;;4.33;3.93;;;;;;;7.89;41.02;96733.53;5037719;28;20226;-86
2021/03/06 11:49:54;;;;;;;6.47;4.23;;;;;;;8.19;41.82;96744.66;5064198;28;20212;-86